sensor_id;sensor_type;location;lat;lon;timestamp;P1;durP1;ratioP1;P2;durP2;ratioP2
7013;SDS011;3547;50.774;12.918;2023-11-19T00:00:26;1.00;;;0.90;;
7013;SDS011;3547;50.774;12.918;2023-11-19T00:02:52;1.00;;;0.90;;
7013;SDS011;3547;50.774;12.918;2023-11-19T00:05:18;0.73;;;0.60;;
7013;SDS011;3547;50.774;12.918;2023-11-19T00:07:45;0.70;;;0.43;;
7013;SDS011;3547;50.774;12.918;2023-11-19T00:10:12;0.60;;;0.47;;
7013;SDS011;3547;50.774;12.918;2023-11-19T00:12:45;0.40;;;0.40;;
7013;SDS011;3547;50.774;12.918;2023-11-19T00:15:13;0.40;;;0.40;;
7013;SDS011;3547;50.774;12.918;2023-11-19T00:17:40;1.30;;;0.70;;
7013;SDS011;3547;50.774;12.918;2023-11-19T00:20:13;0.40;;;0.40;;
7013;SDS011;3547;50.774;12.918;2023-11-19T00:22:41;0.30;;;0.30;;
7013;SDS011;3547;50.774;12.918;2023-11-19T00:25:08;0.30;;;0.30;;
7013;SDS011;3547;50.774;12.918;2023-11-19T00:27:35;0.30;;;0.30;;
7013;SDS011;3547;50.774;12.918;2023-11-19T00:30:03;0.37;;;0.37;;
7013;SDS011;3547;50.774;12.918;2023-11-19T00:32:31;0.47;;;0.43;;
7013;SDS011;3547;50.774;12.918;2023-11-19T00:34:58;0.50;;;0.27;;
7013;SDS011;3547;50.774;12.918;2023-11-19T00:37:24;0.30;;;0.30;;
7013;SDS011;3547;50.774;12.918;2023-11-19T00:39:53;0.40;;;0.40;;
7013;SDS011;3547;50.774;12.918;2023-11-19T00:42:22;0.30;;;0.27;;
7013;SDS011;3547;50.774;12.918;2023-11-19T00:44:50;0.43;;;0.40;;
7013;SDS011;3547;50.774;12.918;2023-11-19T00:47:16;0.23;;;0.23;;
7013;SDS011;3547;50.774;12.918;2023-11-19T00:49:46;0.40;;;0.40;;
7013;SDS011;3547;50.774;12.918;2023-11-19T00:52:14;0.17;;;0.17;;
7013;SDS011;3547;50.774;12.918;2023-11-19T00:54:44;0.40;;;0.40;;
7013;SDS011;3547;50.774;12.918;2023-11-19T00:57:10;0.53;;;0.53;;
7013;SDS011;3547;50.774;12.918;2023-11-19T00:59:37;0.10;;;0.10;;
7013;SDS011;3547;50.774;12.918;2023-11-19T01:02:12;0.20;;;0.20;;
7013;SDS011;3547;50.774;12.918;2023-11-19T01:04:39;0.97;;;0.50;;
7013;SDS011;3547;50.774;12.918;2023-11-19T01:07:06;0.20;;;0.20;;
7013;SDS011;3547;50.774;12.918;2023-11-19T01:09:32;0.53;;;0.30;;
7013;SDS011;3547;50.774;12.918;2023-11-19T01:12:04;0.43;;;0.20;;
7013;SDS011;3547;50.774;12.918;2023-11-19T01:14:30;0.30;;;0.20;;
7013;SDS011;3547;50.774;12.918;2023-11-19T01:16:57;0.00;;;0.00;;
7013;SDS011;3547;50.774;12.918;2023-11-19T01:19:23;0.20;;;0.20;;
7013;SDS011;3547;50.774;12.918;2023-11-19T01:21:52;0.10;;;0.10;;
7013;SDS011;3547;50.774;12.918;2023-11-19T01:24:19;0.30;;;0.30;;
7013;SDS011;3547;50.774;12.918;2023-11-19T01:26:45;0.20;;;0.20;;
7013;SDS011;3547;50.774;12.918;2023-11-19T01:29:12;0.40;;;0.13;;
7013;SDS011;3547;50.774;12.918;2023-11-19T01:31:42;0.20;;;0.10;;
7013;SDS011;3547;50.774;12.918;2023-11-19T01:34:10;0.20;;;0.20;;
7013;SDS011;3547;50.774;12.918;2023-11-19T01:36:37;0.10;;;0.10;;
7013;SDS011;3547;50.774;12.918;2023-11-19T01:39:04;0.03;;;0.03;;
7013;SDS011;3547;50.774;12.918;2023-11-19T01:41:34;0.10;;;0.10;;
7013;SDS011;3547;50.774;12.918;2023-11-19T01:44:05;0.10;;;0.10;;
7013;SDS011;3547;50.774;12.918;2023-11-19T01:46:32;0.00;;;0.00;;
7013;SDS011;3547;50.774;12.918;2023-11-19T01:48:58;0.20;;;0.20;;
7013;SDS011;3547;50.774;12.918;2023-11-19T01:51:26;0.13;;;0.13;;
7013;SDS011;3547;50.774;12.918;2023-11-19T01:53:52;0.63;;;0.37;;
7013;SDS011;3547;50.774;12.918;2023-11-19T01:56:22;0.20;;;0.10;;
7013;SDS011;3547;50.774;12.918;2023-11-19T01:58:50;0.30;;;0.30;;
7013;SDS011;3547;50.774;12.918;2023-11-19T02:01:16;0.27;;;0.23;;
7013;SDS011;3547;50.774;12.918;2023-11-19T02:03:43;0.23;;;0.23;;
7013;SDS011;3547;50.774;12.918;2023-11-19T02:09:34;0.10;;;0.10;;
7013;SDS011;3547;50.774;12.918;2023-11-19T02:12:00;0.03;;;0.03;;
7013;SDS011;3547;50.774;12.918;2023-11-19T02:14:26;0.20;;;0.20;;
7013;SDS011;3547;50.774;12.918;2023-11-19T02:16:54;0.10;;;0.10;;
7013;SDS011;3547;50.774;12.918;2023-11-19T02:19:20;0.07;;;0.07;;
7013;SDS011;3547;50.774;12.918;2023-11-19T02:21:46;0.10;;;0.10;;
7013;SDS011;3547;50.774;12.918;2023-11-19T02:24:13;0.47;;;0.30;;
7013;SDS011;3547;50.774;12.918;2023-11-19T02:29:13;0.20;;;0.20;;
7013;SDS011;3547;50.774;12.918;2023-11-19T02:31:39;0.00;;;0.00;;
7013;SDS011;3547;50.774;12.918;2023-11-19T02:34:06;1.00;;;0.40;;
7013;SDS011;3547;50.774;12.918;2023-11-19T02:36:32;0.10;;;0.10;;
7013;SDS011;3547;50.774;12.918;2023-11-19T02:39:01;0.10;;;0.10;;
7013;SDS011;3547;50.774;12.918;2023-11-19T02:41:33;0.30;;;0.30;;
7013;SDS011;3547;50.774;12.918;2023-11-19T02:43:59;0.13;;;0.13;;
7013;SDS011;3547;50.774;12.918;2023-11-19T02:46:26;0.10;;;0.10;;
7013;SDS011;3547;50.774;12.918;2023-11-19T02:48:52;0.10;;;0.10;;
7013;SDS011;3547;50.774;12.918;2023-11-19T02:51:18;0.13;;;0.13;;
7013;SDS011;3547;50.774;12.918;2023-11-19T02:53:47;0.20;;;0.20;;
7013;SDS011;3547;50.774;12.918;2023-11-19T02:56:31;1.03;;;0.20;;
7013;SDS011;3547;50.774;12.918;2023-11-19T02:59:03;0.20;;;0.20;;
7013;SDS011;3547;50.774;12.918;2023-11-19T03:01:46;0.20;;;0.20;;
7013;SDS011;3547;50.774;12.918;2023-11-19T03:04:25;0.40;;;0.27;;
7013;SDS011;3547;50.774;12.918;2023-11-19T03:06:57;2.57;;;0.30;;
7013;SDS011;3547;50.774;12.918;2023-11-19T03:09:41;0.27;;;0.20;;
7013;SDS011;3547;50.774;12.918;2023-11-19T03:12:11;0.90;;;0.50;;
7013;SDS011;3547;50.774;12.918;2023-11-19T03:17:58;2.27;;;0.97;;
7013;SDS011;3547;50.774;12.918;2023-11-19T03:20:30;0.47;;;0.33;;
7013;SDS011;3547;50.774;12.918;2023-11-19T03:22:57;0.83;;;0.27;;
7013;SDS011;3547;50.774;12.918;2023-11-19T03:25:26;0.10;;;0.10;;
7013;SDS011;3547;50.774;12.918;2023-11-19T03:28:02;0.13;;;0.10;;
7013;SDS011;3547;50.774;12.918;2023-11-19T03:30:30;0.93;;;0.23;;
7013;SDS011;3547;50.774;12.918;2023-11-19T03:32:57;0.30;;;0.20;;
7013;SDS011;3547;50.774;12.918;2023-11-19T03:35:26;0.10;;;0.10;;
7013;SDS011;3547;50.774;12.918;2023-11-19T03:37:53;0.30;;;0.20;;
7013;SDS011;3547;50.774;12.918;2023-11-19T03:40:19;0.20;;;0.20;;
7013;SDS011;3547;50.774;12.918;2023-11-19T03:42:46;0.20;;;0.20;;
7013;SDS011;3547;50.774;12.918;2023-11-19T03:45:12;0.00;;;0.00;;
7013;SDS011;3547;50.774;12.918;2023-11-19T03:47:39;0.17;;;0.17;;
7013;SDS011;3547;50.774;12.918;2023-11-19T03:50:05;1.07;;;0.10;;
7013;SDS011;3547;50.774;12.918;2023-11-19T03:52:33;0.20;;;0.20;;
7013;SDS011;3547;50.774;12.918;2023-11-19T03:55:00;0.00;;;0.00;;
7013;SDS011;3547;50.774;12.918;2023-11-19T03:57:27;0.07;;;0.07;;
7013;SDS011;3547;50.774;12.918;2023-11-19T03:59:53;0.20;;;0.20;;
7013;SDS011;3547;50.774;12.918;2023-11-19T04:02:24;0.03;;;0.00;;
7013;SDS011;3547;50.774;12.918;2023-11-19T04:04:53;0.53;;;0.33;;
7013;SDS011;3547;50.774;12.918;2023-11-19T04:07:20;0.00;;;0.00;;
7013;SDS011;3547;50.774;12.918;2023-11-19T04:09:46;0.00;;;0.00;;
7013;SDS011;3547;50.774;12.918;2023-11-19T04:12:13;0.00;;;0.00;;
7013;SDS011;3547;50.774;12.918;2023-11-19T04:14:39;0.00;;;0.00;;
7013;SDS011;3547;50.774;12.918;2023-11-19T04:17:06;0.10;;;0.10;;
7013;SDS011;3547;50.774;12.918;2023-11-19T04:19:32;0.00;;;0.00;;
7013;SDS011;3547;50.774;12.918;2023-11-19T04:21:58;0.00;;;0.00;;
7013;SDS011;3547;50.774;12.918;2023-11-19T04:24:24;0.07;;;0.07;;
7013;SDS011;3547;50.774;12.918;2023-11-19T04:26:50;0.03;;;0.03;;
7013;SDS011;3547;50.774;12.918;2023-11-19T04:29:17;0.10;;;0.10;;
7013;SDS011;3547;50.774;12.918;2023-11-19T04:31:45;0.20;;;0.10;;
7013;SDS011;3547;50.774;12.918;2023-11-19T04:34:11;0.00;;;0.00;;
7013;SDS011;3547;50.774;12.918;2023-11-19T04:36:38;0.10;;;0.10;;
7013;SDS011;3547;50.774;12.918;2023-11-19T04:39:05;0.00;;;0.00;;
7013;SDS011;3547;50.774;12.918;2023-11-19T04:41:46;0.10;;;0.10;;
7013;SDS011;3547;50.774;12.918;2023-11-19T04:44:18;0.00;;;0.00;;
7013;SDS011;3547;50.774;12.918;2023-11-19T04:46:44;0.10;;;0.10;;
7013;SDS011;3547;50.774;12.918;2023-11-19T04:49:13;0.13;;;0.13;;
7013;SDS011;3547;50.774;12.918;2023-11-19T04:51:40;0.07;;;0.07;;
7013;SDS011;3547;50.774;12.918;2023-11-19T04:54:12;2.53;;;0.20;;
7013;SDS011;3547;50.774;12.918;2023-11-19T04:56:39;0.20;;;0.20;;
7013;SDS011;3547;50.774;12.918;2023-11-19T04:59:06;0.03;;;0.03;;
7013;SDS011;3547;50.774;12.918;2023-11-19T05:01:58;0.03;;;0.03;;
7013;SDS011;3547;50.774;12.918;2023-11-19T05:04:25;0.10;;;0.10;;
7013;SDS011;3547;50.774;12.918;2023-11-19T05:06:51;0.10;;;0.10;;
7013;SDS011;3547;50.774;12.918;2023-11-19T05:09:18;0.10;;;0.10;;
7013;SDS011;3547;50.774;12.918;2023-11-19T05:11:45;0.23;;;0.23;;
7013;SDS011;3547;50.774;12.918;2023-11-19T05:14:11;0.00;;;0.00;;
7013;SDS011;3547;50.774;12.918;2023-11-19T05:16:40;0.10;;;0.10;;
7013;SDS011;3547;50.774;12.918;2023-11-19T05:19:06;0.20;;;0.20;;
7013;SDS011;3547;50.774;12.918;2023-11-19T05:21:36;0.23;;;0.13;;
7013;SDS011;3547;50.774;12.918;2023-11-19T05:24:05;0.30;;;0.17;;
7013;SDS011;3547;50.774;12.918;2023-11-19T05:26:34;2.33;;;0.03;;
7013;SDS011;3547;50.774;12.918;2023-11-19T05:29:00;0.13;;;0.13;;
7013;SDS011;3547;50.774;12.918;2023-11-19T05:31:27;0.27;;;0.27;;
7013;SDS011;3547;50.774;12.918;2023-11-19T05:33:53;2.23;;;0.67;;
7013;SDS011;3547;50.774;12.918;2023-11-19T05:36:20;0.00;;;0.00;;
7013;SDS011;3547;50.774;12.918;2023-11-19T05:38:46;0.20;;;0.20;;
7013;SDS011;3547;50.774;12.918;2023-11-19T05:41:12;0.10;;;0.10;;
7013;SDS011;3547;50.774;12.918;2023-11-19T05:43:39;0.10;;;0.10;;
7013;SDS011;3547;50.774;12.918;2023-11-19T05:46:06;0.10;;;0.10;;
7013;SDS011;3547;50.774;12.918;2023-11-19T05:48:35;0.00;;;0.00;;
7013;SDS011;3547;50.774;12.918;2023-11-19T05:51:02;0.00;;;0.00;;
7013;SDS011;3547;50.774;12.918;2023-11-19T05:53:28;0.30;;;0.30;;
7013;SDS011;3547;50.774;12.918;2023-11-19T05:55:54;0.57;;;0.57;;
7013;SDS011;3547;50.774;12.918;2023-11-19T05:58:25;0.40;;;0.30;;
7013;SDS011;3547;50.774;12.918;2023-11-19T06:00:52;0.13;;;0.13;;
7013;SDS011;3547;50.774;12.918;2023-11-19T06:03:18;0.00;;;0.00;;
7013;SDS011;3547;50.774;12.918;2023-11-19T06:05:45;0.10;;;0.10;;
7013;SDS011;3547;50.774;12.918;2023-11-19T06:08:12;0.20;;;0.20;;
7013;SDS011;3547;50.774;12.918;2023-11-19T06:10:39;0.40;;;0.40;;
7013;SDS011;3547;50.774;12.918;2023-11-19T06:13:06;0.20;;;0.20;;
7013;SDS011;3547;50.774;12.918;2023-11-19T06:15:32;0.73;;;0.17;;
7013;SDS011;3547;50.774;12.918;2023-11-19T06:17:59;0.10;;;0.10;;
7013;SDS011;3547;50.774;12.918;2023-11-19T06:20:26;0.27;;;0.20;;
7013;SDS011;3547;50.774;12.918;2023-11-19T06:22:56;0.20;;;0.20;;
7013;SDS011;3547;50.774;12.918;2023-11-19T06:25:22;0.60;;;0.27;;
7013;SDS011;3547;50.774;12.918;2023-11-19T06:27:49;0.10;;;0.10;;
7013;SDS011;3547;50.774;12.918;2023-11-19T06:30:16;0.00;;;0.00;;
7013;SDS011;3547;50.774;12.918;2023-11-19T06:32:43;1.60;;;0.10;;
7013;SDS011;3547;50.774;12.918;2023-11-19T06:35:09;0.10;;;0.10;;
7013;SDS011;3547;50.774;12.918;2023-11-19T06:37:38;0.10;;;0.10;;
7013;SDS011;3547;50.774;12.918;2023-11-19T06:40:05;0.43;;;0.23;;
7013;SDS011;3547;50.774;12.918;2023-11-19T06:42:32;0.30;;;0.30;;
7013;SDS011;3547;50.774;12.918;2023-11-19T06:44:58;0.07;;;0.07;;
7013;SDS011;3547;50.774;12.918;2023-11-19T06:47:27;0.20;;;0.17;;
7013;SDS011;3547;50.774;12.918;2023-11-19T06:49:54;3.63;;;0.33;;
7013;SDS011;3547;50.774;12.918;2023-11-19T06:52:20;0.00;;;0.00;;
7013;SDS011;3547;50.774;12.918;2023-11-19T06:54:47;0.03;;;0.00;;
7013;SDS011;3547;50.774;12.918;2023-11-19T06:57:13;0.13;;;0.10;;
7013;SDS011;3547;50.774;12.918;2023-11-19T06:59:39;0.23;;;0.23;;
7013;SDS011;3547;50.774;12.918;2023-11-19T07:02:06;0.20;;;0.20;;
7013;SDS011;3547;50.774;12.918;2023-11-19T07:04:32;0.83;;;0.20;;
7013;SDS011;3547;50.774;12.918;2023-11-19T07:07:01;0.30;;;0.30;;
7013;SDS011;3547;50.774;12.918;2023-11-19T07:09:27;0.20;;;0.20;;
7013;SDS011;3547;50.774;12.918;2023-11-19T07:11:54;0.10;;;0.10;;
7013;SDS011;3547;50.774;12.918;2023-11-19T07:14:20;0.20;;;0.20;;
7013;SDS011;3547;50.774;12.918;2023-11-19T07:16:48;0.00;;;0.00;;
7013;SDS011;3547;50.774;12.918;2023-11-19T07:19:15;0.00;;;0.00;;
7013;SDS011;3547;50.774;12.918;2023-11-19T07:21:42;0.10;;;0.10;;
7013;SDS011;3547;50.774;12.918;2023-11-19T07:24:12;0.20;;;0.17;;
7013;SDS011;3547;50.774;12.918;2023-11-19T07:26:45;0.07;;;0.07;;
7013;SDS011;3547;50.774;12.918;2023-11-19T07:29:15;0.37;;;0.20;;
7013;SDS011;3547;50.774;12.918;2023-11-19T07:31:44;1.43;;;0.20;;
7013;SDS011;3547;50.774;12.918;2023-11-19T07:34:10;0.20;;;0.20;;
7013;SDS011;3547;50.774;12.918;2023-11-19T07:36:37;0.60;;;0.20;;
7013;SDS011;3547;50.774;12.918;2023-11-19T07:39:04;0.50;;;0.30;;
7013;SDS011;3547;50.774;12.918;2023-11-19T07:41:30;0.33;;;0.33;;
7013;SDS011;3547;50.774;12.918;2023-11-19T07:43:57;0.40;;;0.30;;
7013;SDS011;3547;50.774;12.918;2023-11-19T07:46:23;0.33;;;0.33;;
7013;SDS011;3547;50.774;12.918;2023-11-19T07:48:50;0.20;;;0.20;;
7013;SDS011;3547;50.774;12.918;2023-11-19T07:51:17;0.30;;;0.30;;
7013;SDS011;3547;50.774;12.918;2023-11-19T07:53:43;0.50;;;0.20;;
7013;SDS011;3547;50.774;12.918;2023-11-19T07:56:10;0.20;;;0.20;;
7013;SDS011;3547;50.774;12.918;2023-11-19T07:58:36;0.67;;;0.40;;
7013;SDS011;3547;50.774;12.918;2023-11-19T08:01:02;0.37;;;0.37;;
7013;SDS011;3547;50.774;12.918;2023-11-19T08:03:29;0.30;;;0.30;;
7013;SDS011;3547;50.774;12.918;2023-11-19T08:05:55;0.70;;;0.43;;
7013;SDS011;3547;50.774;12.918;2023-11-19T08:08:24;0.80;;;0.70;;
7013;SDS011;3547;50.774;12.918;2023-11-19T08:10:50;0.30;;;0.30;;
7013;SDS011;3547;50.774;12.918;2023-11-19T08:13:20;0.43;;;0.43;;
7013;SDS011;3547;50.774;12.918;2023-11-19T08:15:46;0.30;;;0.30;;
7013;SDS011;3547;50.774;12.918;2023-11-19T08:18:12;0.20;;;0.20;;
7013;SDS011;3547;50.774;12.918;2023-11-19T08:20:39;0.77;;;0.50;;
7013;SDS011;3547;50.774;12.918;2023-11-19T08:23:08;0.20;;;0.20;;
7013;SDS011;3547;50.774;12.918;2023-11-19T08:25:34;1.63;;;0.50;;
7013;SDS011;3547;50.774;12.918;2023-11-19T08:28:00;0.10;;;0.07;;
7013;SDS011;3547;50.774;12.918;2023-11-19T08:30:29;4.33;;;1.20;;
7013;SDS011;3547;50.774;12.918;2023-11-19T08:32:55;0.63;;;0.30;;
7013;SDS011;3547;50.774;12.918;2023-11-19T08:35:25;0.40;;;0.40;;
7013;SDS011;3547;50.774;12.918;2023-11-19T08:37:51;0.57;;;0.47;;
7013;SDS011;3547;50.774;12.918;2023-11-19T08:40:18;0.67;;;0.50;;
7013;SDS011;3547;50.774;12.918;2023-11-19T08:42:45;4.13;;;0.63;;
7013;SDS011;3547;50.774;12.918;2023-11-19T08:45:11;1.77;;;0.60;;
7013;SDS011;3547;50.774;12.918;2023-11-19T08:47:38;0.23;;;0.23;;
7013;SDS011;3547;50.774;12.918;2023-11-19T08:50:06;1.03;;;0.50;;
7013;SDS011;3547;50.774;12.918;2023-11-19T08:52:35;2.53;;;0.37;;
7013;SDS011;3547;50.774;12.918;2023-11-19T08:55:01;0.40;;;0.40;;
7013;SDS011;3547;50.774;12.918;2023-11-19T08:57:28;0.50;;;0.33;;
7013;SDS011;3547;50.774;12.918;2023-11-19T08:59:54;2.23;;;0.60;;
7013;SDS011;3547;50.774;12.918;2023-11-19T09:02:20;1.23;;;0.70;;
7013;SDS011;3547;50.774;12.918;2023-11-19T09:04:47;0.40;;;0.40;;
7013;SDS011;3547;50.774;12.918;2023-11-19T09:07:13;2.33;;;0.70;;
7013;SDS011;3547;50.774;12.918;2023-11-19T09:09:39;1.00;;;0.47;;
7013;SDS011;3547;50.774;12.918;2023-11-19T09:12:06;0.47;;;0.43;;
7013;SDS011;3547;50.774;12.918;2023-11-19T09:14:32;0.33;;;0.33;;
7013;SDS011;3547;50.774;12.918;2023-11-19T09:16:59;0.47;;;0.47;;
7013;SDS011;3547;50.774;12.918;2023-11-19T09:19:25;0.67;;;0.40;;
7013;SDS011;3547;50.774;12.918;2023-11-19T09:21:52;0.80;;;0.50;;
7013;SDS011;3547;50.774;12.918;2023-11-19T09:24:18;0.60;;;0.40;;
7013;SDS011;3547;50.774;12.918;2023-11-19T09:26:45;0.87;;;0.20;;
7013;SDS011;3547;50.774;12.918;2023-11-19T09:29:11;0.40;;;0.40;;
7013;SDS011;3547;50.774;12.918;2023-11-19T09:31:39;0.60;;;0.60;;
7013;SDS011;3547;50.774;12.918;2023-11-19T09:34:06;0.43;;;0.30;;
7013;SDS011;3547;50.774;12.918;2023-11-19T09:36:33;0.40;;;0.40;;
7013;SDS011;3547;50.774;12.918;2023-11-19T09:38:59;0.37;;;0.37;;
7013;SDS011;3547;50.774;12.918;2023-11-19T09:41:30;0.67;;;0.50;;
7013;SDS011;3547;50.774;12.918;2023-11-19T09:43:58;0.47;;;0.20;;
7013;SDS011;3547;50.774;12.918;2023-11-19T09:46:24;0.43;;;0.40;;
7013;SDS011;3547;50.774;12.918;2023-11-19T09:48:55;0.40;;;0.40;;
7013;SDS011;3547;50.774;12.918;2023-11-19T09:51:24;0.30;;;0.30;;
7013;SDS011;3547;50.774;12.918;2023-11-19T09:53:51;4.07;;;1.07;;
7013;SDS011;3547;50.774;12.918;2023-11-19T09:56:18;1.93;;;0.37;;
7013;SDS011;3547;50.774;12.918;2023-11-19T09:58:44;0.20;;;0.20;;
7013;SDS011;3547;50.774;12.918;2023-11-19T10:01:12;0.43;;;0.33;;
7013;SDS011;3547;50.774;12.918;2023-11-19T10:03:39;0.30;;;0.30;;
7013;SDS011;3547;50.774;12.918;2023-11-19T10:06:06;0.57;;;0.40;;
7013;SDS011;3547;50.774;12.918;2023-11-19T10:08:51;0.30;;;0.30;;
7013;SDS011;3547;50.774;12.918;2023-11-19T10:11:40;0.80;;;0.57;;
7013;SDS011;3547;50.774;12.918;2023-11-19T10:14:07;0.30;;;0.30;;
7013;SDS011;3547;50.774;12.918;2023-11-19T10:16:34;1.07;;;0.60;;
7013;SDS011;3547;50.774;12.918;2023-11-19T10:19:00;0.83;;;0.57;;
7013;SDS011;3547;50.774;12.918;2023-11-19T10:21:27;0.93;;;0.93;;
7013;SDS011;3547;50.774;12.918;2023-11-19T10:23:55;2.10;;;1.27;;
7013;SDS011;3547;50.774;12.918;2023-11-19T10:26:26;0.80;;;0.67;;
7013;SDS011;3547;50.774;12.918;2023-11-19T10:28:53;1.23;;;0.70;;
7013;SDS011;3547;50.774;12.918;2023-11-19T10:31:20;2.73;;;1.53;;
7013;SDS011;3547;50.774;12.918;2023-11-19T10:33:50;1.40;;;0.70;;
7013;SDS011;3547;50.774;12.918;2023-11-19T10:36:18;2.47;;;0.90;;
7013;SDS011;3547;50.774;12.918;2023-11-19T10:38:52;0.80;;;0.77;;
7013;SDS011;3547;50.774;12.918;2023-11-19T10:41:26;5.17;;;0.90;;
7013;SDS011;3547;50.774;12.918;2023-11-19T10:43:53;1.43;;;1.17;;
7013;SDS011;3547;50.774;12.918;2023-11-19T10:46:20;2.63;;;1.10;;
7013;SDS011;3547;50.774;12.918;2023-11-19T10:48:49;1.40;;;1.17;;
7013;SDS011;3547;50.774;12.918;2023-11-19T10:51:18;1.90;;;0.87;;
7013;SDS011;3547;50.774;12.918;2023-11-19T10:53:49;6.13;;;0.83;;
7013;SDS011;3547;50.774;12.918;2023-11-19T10:56:20;0.83;;;0.53;;
7013;SDS011;3547;50.774;12.918;2023-11-19T10:58:56;3.03;;;0.67;;
7013;SDS011;3547;50.774;12.918;2023-11-19T11:01:26;1.27;;;1.00;;
7013;SDS011;3547;50.774;12.918;2023-11-19T11:03:59;0.87;;;0.60;;
7013;SDS011;3547;50.774;12.918;2023-11-19T11:06:27;0.80;;;0.70;;
7013;SDS011;3547;50.774;12.918;2023-11-19T11:08:53;1.17;;;0.63;;
7013;SDS011;3547;50.774;12.918;2023-11-19T11:11:21;0.70;;;0.70;;
7013;SDS011;3547;50.774;12.918;2023-11-19T11:13:49;3.13;;;0.67;;
7013;SDS011;3547;50.774;12.918;2023-11-19T11:16:19;1.67;;;1.00;;
7013;SDS011;3547;50.774;12.918;2023-11-19T11:18:48;3.20;;;0.73;;
7013;SDS011;3547;50.774;12.918;2023-11-19T11:21:16;2.20;;;1.03;;
7013;SDS011;3547;50.774;12.918;2023-11-19T11:29:43;1.27;;;0.70;;
7013;SDS011;3547;50.774;12.918;2023-11-19T11:38:04;1.23;;;0.60;;
7013;SDS011;3547;50.774;12.918;2023-11-19T11:40:43;3.37;;;1.17;;
7013;SDS011;3547;50.774;12.918;2023-11-19T11:43:49;5.87;;;1.20;;
7013;SDS011;3547;50.774;12.918;2023-11-19T11:49:07;1.87;;;0.87;;
7013;SDS011;3547;50.774;12.918;2023-11-19T11:54:09;5.17;;;0.97;;
7013;SDS011;3547;50.774;12.918;2023-11-19T11:56:39;2.83;;;1.10;;
7013;SDS011;3547;50.774;12.918;2023-11-19T11:59:18;1.63;;;0.77;;
7013;SDS011;3547;50.774;12.918;2023-11-19T12:01:59;4.30;;;1.00;;
7013;SDS011;3547;50.774;12.918;2023-11-19T12:04:26;1.20;;;0.80;;
7013;SDS011;3547;50.774;12.918;2023-11-19T12:10:30;4.07;;;0.97;;
7013;SDS011;3547;50.774;12.918;2023-11-19T12:13:06;2.30;;;0.80;;
7013;SDS011;3547;50.774;12.918;2023-11-19T12:19:02;1.10;;;0.73;;
7013;SDS011;3547;50.774;12.918;2023-11-19T12:28:04;2.73;;;0.90;;
7013;SDS011;3547;50.774;12.918;2023-11-19T12:30:36;1.30;;;0.97;;
7013;SDS011;3547;50.774;12.918;2023-11-19T12:36:31;1.93;;;0.77;;
7013;SDS011;3547;50.774;12.918;2023-11-19T12:38:58;2.63;;;1.20;;
7013;SDS011;3547;50.774;12.918;2023-11-19T12:41:24;6.33;;;1.23;;
7013;SDS011;3547;50.774;12.918;2023-11-19T12:47:15;2.33;;;1.20;;
7013;SDS011;3547;50.774;12.918;2023-11-19T12:54:01;3.20;;;1.30;;
7013;SDS011;3547;50.774;12.918;2023-11-19T13:00:27;4.63;;;1.23;;
7013;SDS011;3547;50.774;12.918;2023-11-19T13:03:05;6.97;;;1.40;;
7013;SDS011;3547;50.774;12.918;2023-11-19T13:19:49;2.20;;;1.30;;
7013;SDS011;3547;50.774;12.918;2023-11-19T13:22:22;6.13;;;1.80;;
7013;SDS011;3547;50.774;12.918;2023-11-19T13:28:19;5.33;;;1.10;;
7013;SDS011;3547;50.774;12.918;2023-11-19T13:30:45;1.37;;;1.10;;
7013;SDS011;3547;50.774;12.918;2023-11-19T13:36:36;5.63;;;1.73;;
7013;SDS011;3547;50.774;12.918;2023-11-19T13:39:36;5.00;;;1.30;;
7013;SDS011;3547;50.774;12.918;2023-11-19T13:42:01;7.93;;;1.33;;
7013;SDS011;3547;50.774;12.918;2023-11-19T13:44:27;7.10;;;1.50;;
7013;SDS011;3547;50.774;12.918;2023-11-19T13:50:21;2.90;;;1.27;;
7013;SDS011;3547;50.774;12.918;2023-11-19T13:56:30;2.13;;;1.30;;
7013;SDS011;3547;50.774;12.918;2023-11-19T13:59:12;6.63;;;1.70;;
7013;SDS011;3547;50.774;12.918;2023-11-19T14:05:03;6.37;;;1.30;;
7013;SDS011;3547;50.774;12.918;2023-11-19T14:07:44;4.37;;;1.20;;
7013;SDS011;3547;50.774;12.918;2023-11-19T14:10:22;1.33;;;1.00;;
7013;SDS011;3547;50.774;12.918;2023-11-19T14:12:48;7.17;;;1.30;;
7013;SDS011;3547;50.774;12.918;2023-11-19T14:15:17;5.17;;;1.93;;
7013;SDS011;3547;50.774;12.918;2023-11-19T14:17:44;4.57;;;1.27;;
7013;SDS011;3547;50.774;12.918;2023-11-19T14:20:10;2.43;;;1.10;;
7013;SDS011;3547;50.774;12.918;2023-11-19T14:22:43;3.70;;;1.73;;
7013;SDS011;3547;50.774;12.918;2023-11-19T14:25:14;4.13;;;1.47;;
7013;SDS011;3547;50.774;12.918;2023-11-19T14:27:41;1.87;;;1.20;;
7013;SDS011;3547;50.774;12.918;2023-11-19T14:30:09;4.20;;;1.20;;
7013;SDS011;3547;50.774;12.918;2023-11-19T14:32:37;2.97;;;1.30;;
7013;SDS011;3547;50.774;12.918;2023-11-19T14:35:06;2.27;;;1.23;;
7013;SDS011;3547;50.774;12.918;2023-11-19T14:37:39;7.27;;;1.50;;
7013;SDS011;3547;50.774;12.918;2023-11-19T14:40:05;5.00;;;1.80;;
7013;SDS011;3547;50.774;12.918;2023-11-19T14:42:35;5.70;;;1.80;;
7013;SDS011;3547;50.774;12.918;2023-11-19T14:48:24;4.87;;;2.13;;
7013;SDS011;3547;50.774;12.918;2023-11-19T14:54:13;6.83;;;2.20;;
7013;SDS011;3547;50.774;12.918;2023-11-19T14:56:42;2.27;;;1.77;;
7013;SDS011;3547;50.774;12.918;2023-11-19T14:59:08;2.80;;;1.90;;
7013;SDS011;3547;50.774;12.918;2023-11-19T15:01:34;2.67;;;1.50;;
7013;SDS011;3547;50.774;12.918;2023-11-19T15:04:04;3.00;;;2.03;;
7013;SDS011;3547;50.774;12.918;2023-11-19T15:06:37;7.60;;;1.90;;
7013;SDS011;3547;50.774;12.918;2023-11-19T15:09:03;2.93;;;1.77;;
7013;SDS011;3547;50.774;12.918;2023-11-19T15:11:30;7.47;;;1.93;;
7013;SDS011;3547;50.774;12.918;2023-11-19T15:13:56;5.53;;;2.57;;
7013;SDS011;3547;50.774;12.918;2023-11-19T15:16:23;3.83;;;2.30;;
7013;SDS011;3547;50.774;12.918;2023-11-19T15:18:59;3.30;;;1.77;;
7013;SDS011;3547;50.774;12.918;2023-11-19T15:21:26;3.10;;;1.47;;
7013;SDS011;3547;50.774;12.918;2023-11-19T15:23:55;5.80;;;1.87;;
7013;SDS011;3547;50.774;12.918;2023-11-19T15:26:24;3.53;;;1.67;;
7013;SDS011;3547;50.774;12.918;2023-11-19T15:28:51;2.40;;;1.60;;
7013;SDS011;3547;50.774;12.918;2023-11-19T15:31:22;3.73;;;1.33;;
7013;SDS011;3547;50.774;12.918;2023-11-19T15:33:48;6.77;;;1.90;;
7013;SDS011;3547;50.774;12.918;2023-11-19T15:36:14;3.40;;;1.80;;
7013;SDS011;3547;50.774;12.918;2023-11-19T15:38:40;3.43;;;1.53;;
7013;SDS011;3547;50.774;12.918;2023-11-19T15:41:06;4.40;;;2.00;;
7013;SDS011;3547;50.774;12.918;2023-11-19T15:43:33;4.97;;;1.63;;
7013;SDS011;3547;50.774;12.918;2023-11-19T15:45:59;4.03;;;1.90;;
7013;SDS011;3547;50.774;12.918;2023-11-19T15:48:25;4.07;;;1.97;;
7013;SDS011;3547;50.774;12.918;2023-11-19T15:50:52;2.20;;;1.57;;
7013;SDS011;3547;50.774;12.918;2023-11-19T15:53:18;7.37;;;2.27;;
7013;SDS011;3547;50.774;12.918;2023-11-19T15:55:44;6.47;;;1.70;;
7013;SDS011;3547;50.774;12.918;2023-11-19T15:58:10;2.57;;;1.83;;
7013;SDS011;3547;50.774;12.918;2023-11-19T16:00:37;1.97;;;1.77;;
7013;SDS011;3547;50.774;12.918;2023-11-19T16:03:03;2.50;;;1.70;;
7013;SDS011;3547;50.774;12.918;2023-11-19T16:05:29;5.30;;;2.07;;
7013;SDS011;3547;50.774;12.918;2023-11-19T16:07:55;4.03;;;2.03;;
7013;SDS011;3547;50.774;12.918;2023-11-19T16:10:21;2.53;;;1.60;;
7013;SDS011;3547;50.774;12.918;2023-11-19T16:12:48;3.17;;;1.80;;
7013;SDS011;3547;50.774;12.918;2023-11-19T16:15:14;8.57;;;2.47;;
7013;SDS011;3547;50.774;12.918;2023-11-19T16:17:41;4.23;;;2.90;;
7013;SDS011;3547;50.774;12.918;2023-11-19T16:20:07;8.40;;;3.10;;
7013;SDS011;3547;50.774;12.918;2023-11-19T16:22:36;8.10;;;3.57;;
7013;SDS011;3547;50.774;12.918;2023-11-19T16:25:03;5.90;;;3.57;;
7013;SDS011;3547;50.774;12.918;2023-11-19T16:27:30;10.40;;;4.30;;
7013;SDS011;3547;50.774;12.918;2023-11-19T16:29:56;4.63;;;3.03;;
7013;SDS011;3547;50.774;12.918;2023-11-19T16:32:23;4.23;;;2.97;;
7013;SDS011;3547;50.774;12.918;2023-11-19T16:34:49;4.00;;;2.53;;
7013;SDS011;3547;50.774;12.918;2023-11-19T16:37:16;4.80;;;3.10;;
7013;SDS011;3547;50.774;12.918;2023-11-19T16:39:43;4.10;;;2.83;;